createdAt,value
2023-05-06T00:00:42.853Z,61.79
2023-05-06T00:03:10.952Z,63.56
2023-05-06T00:05:38.921Z,62.87
2023-05-06T00:08:06.836Z,63.36
2023-05-06T00:10:34.803Z,62.33
2023-05-06T00:13:02.665Z,65.75
2023-05-06T00:15:32.303Z,64.91
2023-05-06T00:18:01.242Z,63.86
2023-05-06T00:20:29.373Z,63.64
2023-05-06T00:22:57.188Z,62.75
2023-05-06T00:25:25.317Z,61.43
2023-05-06T00:27:54.258Z,61.64
2023-05-06T00:30:22.079Z,63.16
2023-05-06T00:32:51.441Z,63.19
2023-05-06T00:35:19.650Z,63.42
2023-05-06T00:37:48.032Z,61.96
2023-05-06T00:40:16.001Z,62.68
2023-05-06T00:42:43.783Z,62.29
2023-05-06T00:45:12.505Z,63.02
2023-05-06T00:47:41.177Z,64.16
2023-05-06T00:50:11.051Z,61.90
2023-05-06T00:52:39.430Z,60.53
2023-05-06T00:55:08.162Z,60.63
2023-05-06T00:57:36.108Z,62.03
2023-05-06T01:00:04.218Z,61.94
2023-05-06T01:02:45.852Z,61.36
2023-05-06T01:05:17.274Z,60.40
2023-05-06T01:07:52.513Z,63.71
2023-05-06T01:10:28.922Z,61.85
2023-05-06T01:13:06.379Z,60.03
2023-05-06T01:15:37.307Z,60.03
2023-05-06T01:18:09.929Z,60.63
2023-05-06T01:20:40.198Z,59.58
2023-05-06T01:23:12.598Z,59.72
2023-05-06T01:25:40.787Z,59.60
2023-05-06T01:28:10.527Z,60.09
2023-05-06T01:30:47.373Z,61.24
2023-05-06T01:33:23.938Z,62.06
2023-05-06T01:35:59.449Z,63.79
2023-05-06T01:38:35.916Z,62.62
2023-05-06T01:41:05.278Z,62.38
2023-05-06T01:43:38.816Z,64.05
2023-05-06T01:46:11.387Z,62.21
2023-05-06T01:48:40.721Z,63.84
2023-05-06T01:51:08.624Z,63.17
2023-05-06T01:53:38.062Z,61.98
2023-05-06T01:56:06.711Z,62.43
2023-05-06T01:58:34.653Z,62.16
2023-05-06T02:01:02.512Z,62.52
2023-05-06T02:03:30.748Z,61.88
2023-05-06T02:05:58.971Z,61.39
2023-05-06T02:08:28.336Z,61.59
2023-05-06T02:10:57.712Z,60.70
2023-05-06T02:13:25.759Z,61.19
2023-05-06T02:15:54.861Z,61.52
2023-05-06T02:18:23.727Z,61.65
2023-05-06T02:20:51.522Z,60.29
2023-05-06T02:23:19.483Z,60.41
2023-05-06T02:25:47.876Z,59.90
2023-05-06T02:28:17.459Z,59.33
2023-05-06T02:30:45.465Z,59.04
2023-05-06T02:33:13.492Z,57.83
2023-05-06T02:35:41.513Z,58.75
2023-05-06T02:38:10.057Z,59.65
2023-05-06T02:40:38.036Z,59.46
2023-05-06T02:43:05.906Z,58.08
2023-05-06T02:45:36.595Z,57.09
2023-05-06T02:48:05.087Z,57.08
2023-05-06T02:50:33.041Z,56.24
2023-05-06T02:53:00.941Z,55.64
2023-05-06T02:55:28.696Z,55.99
2023-05-06T02:57:56.571Z,56.55
2023-05-06T03:00:24.652Z,56.60
2023-05-06T03:02:53.986Z,54.78
2023-05-06T03:05:22.191Z,54.62
2023-05-06T03:07:50.142Z,54.99
2023-05-06T03:10:18.288Z,55.58
2023-05-06T03:12:47.231Z,56.78
2023-05-06T03:15:16.371Z,57.11
2023-05-06T03:17:44.439Z,56.88
2023-05-06T03:20:13.920Z,57.23
2023-05-06T03:22:48.566Z,59.46
2023-05-06T03:25:16.520Z,59.12
2023-05-06T03:27:44.640Z,57.75
2023-05-06T03:30:19.013Z,56.41
2023-05-06T03:32:49.028Z,56.26
2023-05-06T03:35:24.730Z,56.33
2023-05-06T03:37:56.712Z,56.62
2023-05-06T03:40:27.714Z,57.36
2023-05-06T03:42:56.700Z,56.97
2023-05-06T03:45:25.677Z,56.03
2023-05-06T03:47:54.669Z,56.55
2023-05-06T03:50:26.270Z,56.91
2023-05-06T03:52:55.519Z,55.92
2023-05-06T03:55:26.064Z,56.35
2023-05-06T03:57:54.058Z,56.02
2023-05-06T04:00:23.162Z,57.87
2023-05-06T04:02:54.475Z,58.32
2023-05-06T04:05:30.713Z,59.09
2023-05-06T04:07:59.115Z,57.65
2023-05-06T04:10:27.120Z,57.88
2023-05-06T04:13:00.798Z,57.70
2023-05-06T04:15:35.291Z,57.89
2023-05-06T04:18:07.502Z,57.88
2023-05-06T04:20:39.025Z,57.42
2023-05-06T04:23:07.265Z,58.69
2023-05-06T04:25:35.783Z,60.47
2023-05-06T04:28:04.203Z,64.60
2023-05-06T04:30:32.590Z,62.89
2023-05-06T04:33:00.768Z,60.24
2023-05-06T04:35:29.170Z,59.79
2023-05-06T04:38:00.120Z,58.86
2023-05-06T04:40:31.317Z,60.05
2023-05-06T04:42:59.079Z,60.51
2023-05-06T04:45:29.800Z,58.40
2023-05-06T04:47:58.259Z,57.14
2023-05-06T04:50:28.231Z,58.47
2023-05-06T04:52:56.110Z,58.34
2023-05-06T04:55:25.616Z,60.19
2023-05-06T04:57:54.687Z,57.91
2023-05-06T05:00:22.884Z,56.15
2023-05-06T05:02:51.054Z,58.49
2023-05-06T05:05:20.919Z,59.77
2023-05-06T05:07:52.419Z,58.18
2023-05-06T05:10:20.748Z,57.50
2023-05-06T05:12:51.560Z,56.22
2023-05-06T05:15:21.298Z,58.12
2023-05-06T05:17:51.009Z,59.04
2023-05-06T05:20:20.183Z,58.93
2023-05-06T05:22:48.072Z,57.84
2023-05-06T05:25:15.957Z,57.36
2023-05-06T05:27:44.373Z,56.44
2023-05-06T05:30:13.986Z,55.77
2023-05-06T05:32:42.349Z,56.20
2023-05-06T05:35:16.124Z,65.53
2023-05-06T05:37:45.181Z,59.73
2023-05-06T05:40:14.322Z,61.34
2023-05-06T05:42:43.555Z,63.44
2023-05-06T05:45:22.525Z,60.18
2023-05-06T05:47:51.598Z,57.96
2023-05-06T05:50:19.755Z,56.58
2023-05-06T05:52:47.573Z,55.75
2023-05-06T05:55:16.211Z,57.18
2023-05-06T05:57:46.328Z,54.78
2023-05-06T06:00:15.196Z,55.76
2023-05-06T06:02:47.314Z,54.48
2023-05-06T06:05:20.018Z,54.81
2023-05-06T06:07:48.162Z,52.63
2023-05-06T06:10:16.257Z,51.52
2023-05-06T06:12:45.602Z,55.77
2023-05-06T06:15:18.721Z,55.17
2023-05-06T06:17:49.069Z,54.35
2023-05-06T06:20:17.158Z,53.49
2023-05-06T06:22:45.104Z,51.88
2023-05-06T06:25:12.981Z,53.79
2023-05-06T06:27:41.820Z,51.93
2023-05-06T06:30:10.624Z,52.99
2023-05-06T06:32:48.567Z,54.97
2023-05-06T06:35:19.076Z,54.13
2023-05-06T06:37:46.951Z,53.19
2023-05-06T06:40:15.187Z,52.22
2023-05-06T06:42:43.003Z,51.00
2023-05-06T06:45:40.295Z,50.21
2023-05-06T06:48:08.242Z,49.75
2023-05-06T06:50:37.458Z,51.00
2023-05-06T06:53:06.355Z,50.07
2023-05-06T06:55:34.686Z,49.08
2023-05-06T06:58:03.634Z,47.20
2023-05-06T07:00:31.389Z,47.11
2023-05-06T07:02:59.162Z,46.81
2023-05-06T07:05:27.493Z,46.74
2023-05-06T07:07:56.803Z,47.62
2023-05-06T07:10:24.619Z,50.64
2023-05-06T07:12:52.465Z,47.73
2023-05-06T07:15:20.482Z,48.80
2023-05-06T07:17:48.571Z,47.54
2023-05-06T07:20:17.059Z,47.71
2023-05-06T07:22:45.723Z,48.12
2023-05-06T07:25:15.074Z,47.37
2023-05-06T07:27:42.855Z,46.78
2023-05-06T07:30:11.448Z,46.98
2023-05-06T07:32:41.007Z,50.57
2023-05-06T07:35:10.355Z,54.47
2023-05-06T07:37:38.388Z,52.38
2023-05-06T07:40:07.624Z,51.58
2023-05-06T07:42:36.887Z,50.01
2023-05-06T07:45:05.400Z,51.83
2023-05-06T07:47:33.511Z,50.00
2023-05-06T07:50:01.332Z,52.21
2023-05-06T07:52:29.302Z,48.14
2023-05-06T07:54:57.014Z,47.86
2023-05-06T07:57:24.840Z,47.57
2023-05-06T07:59:54.298Z,46.18
2023-05-06T08:02:22.317Z,44.61
2023-05-06T08:04:51.775Z,47.44
2023-05-06T08:07:20.440Z,46.68
2023-05-06T08:09:48.293Z,47.71
2023-05-06T08:12:17.472Z,48.27
2023-05-06T08:14:45.533Z,44.50
2023-05-06T08:17:15.333Z,43.92
2023-05-06T08:19:43.103Z,43.73
2023-05-06T08:22:10.893Z,43.26
2023-05-06T08:24:38.980Z,42.86
2023-05-06T08:27:07.140Z,45.03
2023-05-06T08:29:34.999Z,45.18
2023-05-06T08:32:02.996Z,44.88
2023-05-06T08:34:32.647Z,43.75
2023-05-06T08:37:00.526Z,42.81
2023-05-06T08:39:28.892Z,42.07
2023-05-06T08:41:59.536Z,43.04
2023-05-06T08:44:27.833Z,42.63
2023-05-06T08:46:56.675Z,44.14
2023-05-06T08:49:24.997Z,43.01
2023-05-06T08:51:54.354Z,43.07
2023-05-06T08:54:26.165Z,41.09
2023-05-06T08:56:57.844Z,41.17
2023-05-06T08:59:27.006Z,43.33
2023-05-06T09:01:54.945Z,45.56
2023-05-06T09:04:23.142Z,42.69
2023-05-06T09:06:52.151Z,41.19
2023-05-06T09:09:21.594Z,43.99
2023-05-06T09:11:53.916Z,41.27
2023-05-06T09:14:23.042Z,39.02
2023-05-06T09:16:52.888Z,38.70
2023-05-06T09:19:22.563Z,38.29
2023-05-06T09:21:52.376Z,39.72
2023-05-06T09:24:22.044Z,40.21
2023-05-06T09:26:50.398Z,42.93
2023-05-06T09:29:18.281Z,41.60
2023-05-06T09:31:47.715Z,41.27
2023-05-06T09:34:17.410Z,42.38
2023-05-06T09:36:45.406Z,41.12
2023-05-06T09:39:13.214Z,43.95
2023-05-06T09:41:43.546Z,42.11
2023-05-06T09:44:12.804Z,43.61
2023-05-06T09:46:41.243Z,42.78
2023-05-06T09:49:10.194Z,42.79
2023-05-06T09:51:38.739Z,45.10
2023-05-06T09:54:07.357Z,41.98
2023-05-06T09:56:35.565Z,40.54
2023-05-06T09:59:06.899Z,45.01
2023-05-06T10:01:37.606Z,45.71
2023-05-06T10:04:09.848Z,43.76
2023-05-06T10:06:41.281Z,44.64
2023-05-06T10:09:09.933Z,41.94
2023-05-06T10:11:37.916Z,41.67
2023-05-06T10:14:08.060Z,38.71
2023-05-06T10:16:37.470Z,37.71
2023-05-06T10:19:09.410Z,37.12
2023-05-06T10:21:40.625Z,36.93
2023-05-06T10:24:12.747Z,35.78
2023-05-06T10:26:43.520Z,36.27
2023-05-06T10:29:12.695Z,36.09
2023-05-06T10:31:47.592Z,36.91
2023-05-06T10:34:19.405Z,38.22
2023-05-06T10:36:49.703Z,39.43
2023-05-06T10:39:18.254Z,39.53
2023-05-06T10:41:46.101Z,42.05
2023-05-06T10:44:15.477Z,39.50
2023-05-06T10:46:59.659Z,38.61
2023-05-06T10:49:29.106Z,37.32
2023-05-06T10:52:14.461Z,37.88
2023-05-06T10:54:50.320Z,36.97
2023-05-06T10:57:20.671Z,40.97
2023-05-06T10:59:49.995Z,41.31
2023-05-06T11:02:20.839Z,40.29
2023-05-06T11:04:53.538Z,38.48
2023-05-06T11:07:25.087Z,40.07
2023-05-06T11:09:57.236Z,40.11
2023-05-06T11:12:46.542Z,39.61
2023-05-06T11:15:25.705Z,40.09
2023-05-06T11:17:55.458Z,38.44
2023-05-06T11:20:25.359Z,38.05
2023-05-06T11:22:56.254Z,40.38
2023-05-06T11:25:43.287Z,36.77
2023-05-06T11:28:11.937Z,34.59
2023-05-06T11:30:43.583Z,33.01
2023-05-06T11:33:19.871Z,33.46
2023-05-06T11:35:47.770Z,33.98
2023-05-06T11:38:15.677Z,36.78
2023-05-06T11:40:43.570Z,35.99
2023-05-06T11:43:12.539Z,39.48
2023-05-06T11:45:46.458Z,37.91
2023-05-06T11:48:15.084Z,36.03
2023-05-06T11:50:47.257Z,35.46
2023-05-06T11:53:16.711Z,36.87
2023-05-06T11:55:45.387Z,37.68
2023-05-06T11:58:17.198Z,36.85
2023-05-06T12:00:51.980Z,35.59
2023-05-06T12:03:20.465Z,36.00
2023-05-06T12:05:49.307Z,38.38
2023-05-06T12:08:26.561Z,37.96
2023-05-06T12:10:58.805Z,40.00
2023-05-06T12:13:28.102Z,40.78
2023-05-06T12:16:00.543Z,39.74
2023-05-06T12:18:28.929Z,40.62
2023-05-06T12:20:57.193Z,38.50
2023-05-06T12:23:24.997Z,39.85
2023-05-06T12:26:02.866Z,43.54
2023-05-06T12:28:32.844Z,42.27
2023-05-06T12:31:02.289Z,41.69
2023-05-06T12:33:45.438Z,41.33
2023-05-06T12:36:13.398Z,42.92
2023-05-06T12:38:51.624Z,42.00
2023-05-06T12:41:20.130Z,43.22
2023-05-06T12:43:47.975Z,42.33
2023-05-06T12:46:18.396Z,39.68
2023-05-06T12:48:58.116Z,41.23
2023-05-06T12:51:26.671Z,38.21
2023-05-06T12:53:54.459Z,38.04
2023-05-06T12:56:22.729Z,40.27
2023-05-06T12:58:58.131Z,38.97
2023-05-06T13:01:27.370Z,39.98
2023-05-06T13:03:56.439Z,39.10
2023-05-06T13:06:24.200Z,37.41
2023-05-06T13:08:52.019Z,35.31
2023-05-06T13:11:21.440Z,37.25
2023-05-06T13:13:49.165Z,38.20
2023-05-06T13:16:17.041Z,36.57
2023-05-06T13:18:46.257Z,38.71
2023-05-06T13:21:14.139Z,39.29
2023-05-06T13:23:46.874Z,38.93
2023-05-06T13:26:14.729Z,36.90
2023-05-06T13:28:42.551Z,36.82
2023-05-06T13:31:10.447Z,35.19
2023-05-06T13:33:38.510Z,37.94
2023-05-06T13:36:08.216Z,38.22
2023-05-06T13:38:35.944Z,38.10
2023-05-06T13:41:03.661Z,37.74
2023-05-06T13:43:31.381Z,36.54
2023-05-06T13:45:59.160Z,34.22
2023-05-06T13:48:26.955Z,34.87
2023-05-06T13:50:54.662Z,33.23
2023-05-06T13:53:23.756Z,33.92
2023-05-06T13:55:51.477Z,32.63
2023-05-06T13:58:19.361Z,33.49
2023-05-06T14:00:47.227Z,35.80
2023-05-06T14:03:14.944Z,34.28
2023-05-06T14:05:42.704Z,33.19
2023-05-06T14:08:10.454Z,33.54
2023-05-06T14:10:39.526Z,32.61
2023-05-06T14:13:07.437Z,33.83
2023-05-06T14:15:35.345Z,33.31
2023-05-06T14:18:03.087Z,33.85
2023-05-06T14:20:30.923Z,33.15
2023-05-06T14:22:58.630Z,32.17
2023-05-06T14:25:27.842Z,33.35
2023-05-06T14:27:57.202Z,33.21
2023-05-06T14:30:25.889Z,33.40
2023-05-06T14:32:53.693Z,33.12
2023-05-06T14:35:21.826Z,33.14
2023-05-06T14:37:49.660Z,31.50
2023-05-06T14:40:17.800Z,31.31
2023-05-06T14:42:45.834Z,31.52
2023-05-06T14:45:15.876Z,30.41
2023-05-06T14:47:44.015Z,31.06
2023-05-06T14:50:12.805Z,30.92
2023-05-06T14:52:42.130Z,31.47
2023-05-06T14:55:11.647Z,29.65
2023-05-06T14:57:39.587Z,30.80
2023-05-06T15:00:10.177Z,31.76
2023-05-06T15:02:40.720Z,29.48
2023-05-06T15:05:10.399Z,27.17
2023-05-06T15:07:38.561Z,26.39
2023-05-06T15:10:07.031Z,27.42
2023-05-06T15:12:37.383Z,29.41
2023-05-06T15:15:06.435Z,29.34
2023-05-06T15:17:34.245Z,28.44
2023-05-06T15:20:04.235Z,27.72
2023-05-06T15:22:32.108Z,27.52
2023-05-06T15:24:59.941Z,26.96
2023-05-06T15:27:27.821Z,28.30
2023-05-06T15:29:55.633Z,29.99
2023-05-06T15:32:23.419Z,27.64
2023-05-06T15:34:51.218Z,27.69
2023-05-06T15:37:22.061Z,29.91
2023-05-06T15:39:49.787Z,30.12
2023-05-06T15:42:17.908Z,28.26
2023-05-06T15:44:45.867Z,26.44
2023-05-06T15:47:13.626Z,26.15
2023-05-06T15:52:12.322Z,28.79
2023-05-06T15:54:41.514Z,30.28
2023-05-06T15:57:09.688Z,28.80
2023-05-06T15:59:37.542Z,28.02
2023-05-06T16:04:36.262Z,27.70
2023-05-06T16:07:04.044Z,27.43
2023-05-06T16:09:31.760Z,28.29
2023-05-06T16:12:01.263Z,29.32
2023-05-06T16:14:29.000Z,30.76
2023-05-06T16:16:56.784Z,30.74
2023-05-06T16:19:24.621Z,31.13
2023-05-06T16:21:52.941Z,31.30
2023-05-06T16:24:20.685Z,32.15
2023-05-06T16:26:48.494Z,32.17
2023-05-06T16:29:20.363Z,31.83
2023-05-06T16:31:48.415Z,30.27
2023-05-06T16:34:16.585Z,29.97
2023-05-06T16:36:44.610Z,29.78
2023-05-06T16:39:12.451Z,29.36
2023-05-06T16:41:40.320Z,29.13
2023-05-06T16:44:08.178Z,29.29
2023-05-06T16:46:37.381Z,29.09
2023-05-06T16:49:05.226Z,30.23
2023-05-06T16:51:33.097Z,30.08
2023-05-06T16:54:01.236Z,30.81
2023-05-06T16:56:43.863Z,31.79
2023-05-06T16:59:16.118Z,32.71
2023-05-06T17:01:45.288Z,33.23
2023-05-06T17:04:12.997Z,34.77
2023-05-06T17:06:40.815Z,38.96
2023-05-06T17:09:08.528Z,40.02
2023-05-06T17:11:36.418Z,40.55
2023-05-06T17:14:04.154Z,40.91
2023-05-06T17:16:32.169Z,40.98
2023-05-06T17:19:01.314Z,40.45
2023-05-06T17:21:29.059Z,42.09
2023-05-06T17:23:56.882Z,41.85
2023-05-06T17:26:24.703Z,43.10
2023-05-06T17:28:52.476Z,43.60
2023-05-06T17:31:20.353Z,42.87
2023-05-06T17:33:48.321Z,42.71
2023-05-06T17:36:20.588Z,45.38
2023-05-06T17:38:48.513Z,45.62
2023-05-06T17:41:16.312Z,45.98
2023-05-06T17:43:47.305Z,45.04
2023-05-06T17:46:16.003Z,46.10
2023-05-06T17:48:45.217Z,47.48
2023-05-06T17:51:12.982Z,47.81
2023-05-06T17:53:42.172Z,49.02
2023-05-06T17:56:09.964Z,49.43
2023-05-06T17:58:37.724Z,46.61
2023-05-06T18:01:07.115Z,47.43
2023-05-06T18:03:35.029Z,45.76
2023-05-06T18:06:03.329Z,45.63
2023-05-06T18:08:31.104Z,46.97
2023-05-06T18:11:00.335Z,48.04
2023-05-06T18:13:28.325Z,48.78
2023-05-06T18:15:56.123Z,49.51
2023-05-06T18:18:23.898Z,48.52
2023-05-06T18:20:51.660Z,46.92
2023-05-06T18:23:19.533Z,46.78
2023-05-06T18:25:47.373Z,47.20
2023-05-06T18:28:16.853Z,49.01
2023-05-06T18:30:44.827Z,48.92
2023-05-06T18:33:12.704Z,48.53
2023-05-06T18:35:40.527Z,46.89
2023-05-06T18:38:08.885Z,46.56
2023-05-06T18:40:36.765Z,47.14
2023-05-06T18:43:04.774Z,47.19
2023-05-06T18:45:34.052Z,48.53
2023-05-06T18:48:01.847Z,50.00
2023-05-06T18:50:29.624Z,51.05
2023-05-06T18:52:57.514Z,51.20
2023-05-06T18:55:25.670Z,53.13
2023-05-06T18:57:53.559Z,52.48
2023-05-06T19:00:22.387Z,49.83
2023-05-06T19:02:51.596Z,50.49
2023-05-06T19:05:20.588Z,49.00
2023-05-06T19:07:48.324Z,50.04
2023-05-06T19:10:16.366Z,51.69
2023-05-06T19:12:45.353Z,50.44
2023-05-06T19:15:14.027Z,49.35
2023-05-06T19:17:41.930Z,50.37
2023-05-06T19:20:14.277Z,50.13
2023-05-06T19:22:42.112Z,49.90
2023-05-06T19:25:11.140Z,48.93
2023-05-06T19:27:39.191Z,49.35
2023-05-06T19:30:08.407Z,50.12
2023-05-06T19:32:36.227Z,50.78
2023-05-06T19:35:07.916Z,49.62
2023-05-06T19:37:38.353Z,49.73
2023-05-06T19:40:08.007Z,52.12
2023-05-06T19:42:35.872Z,52.35
2023-05-06T19:45:07.940Z,51.64
2023-05-06T19:47:36.059Z,51.84
2023-05-06T19:50:04.253Z,51.68
2023-05-06T19:52:34.343Z,54.27
2023-05-06T19:55:03.657Z,53.40
2023-05-06T19:57:33.538Z,51.83
2023-05-06T20:00:05.453Z,50.66
2023-05-06T20:02:33.597Z,54.44
2023-05-06T20:05:01.592Z,54.06
2023-05-06T20:07:29.338Z,54.76
2023-05-06T20:09:57.371Z,51.86
2023-05-06T20:12:27.384Z,54.58
2023-05-06T20:14:56.037Z,50.55
2023-05-06T20:17:24.875Z,50.10
2023-05-06T20:19:52.686Z,48.96
2023-05-06T20:22:20.651Z,50.48
2023-05-06T20:24:48.521Z,49.74
2023-05-06T20:27:16.389Z,50.21
2023-05-06T20:29:45.965Z,50.32
2023-05-06T20:32:13.840Z,49.93
2023-05-06T20:34:41.633Z,52.67
2023-05-06T20:37:09.540Z,50.79
2023-05-06T20:39:37.542Z,51.43
2023-05-06T20:42:05.428Z,50.93
2023-05-06T20:44:33.195Z,50.89
2023-05-06T20:47:02.401Z,51.86
2023-05-06T20:49:30.262Z,50.60
2023-05-06T20:51:58.334Z,50.82
2023-05-06T20:54:26.201Z,53.14
2023-05-06T20:56:53.967Z,51.02
2023-05-06T20:59:22.061Z,51.63
2023-05-06T21:01:50.083Z,53.03
2023-05-06T21:04:19.687Z,54.17
2023-05-06T21:06:47.666Z,53.72
2023-05-06T21:09:15.458Z,53.49
2023-05-06T21:11:43.162Z,52.91
2023-05-06T21:14:11.083Z,53.64
2023-05-06T21:16:40.549Z,52.57
2023-05-06T21:19:08.495Z,50.97
2023-05-06T21:21:38.033Z,49.99
2023-05-06T21:24:06.559Z,50.94
2023-05-06T21:26:34.414Z,50.67
2023-05-06T21:29:02.296Z,50.49
2023-05-06T21:31:30.350Z,52.35
2023-05-06T21:34:00.072Z,53.62
2023-05-06T21:36:28.082Z,53.48
2023-05-06T21:39:07.869Z,53.87
2023-05-06T21:41:36.352Z,53.10
2023-05-06T21:44:04.443Z,52.17
2023-05-06T21:46:32.514Z,54.01
2023-05-06T21:49:00.955Z,55.16
2023-05-06T21:51:29.870Z,53.19
2023-05-06T21:53:57.672Z,52.01
2023-05-06T21:56:26.858Z,52.90
2023-05-06T21:58:56.614Z,51.96
2023-05-06T22:01:26.011Z,51.02
2023-05-06T22:03:54.242Z,52.66
2023-05-06T22:06:22.195Z,53.63
2023-05-06T22:08:50.047Z,52.08
2023-05-06T22:11:18.250Z,51.80
2023-05-06T22:13:47.620Z,51.70
2023-05-06T22:16:15.691Z,50.81
2023-05-06T22:18:43.482Z,49.95
2023-05-06T22:21:11.440Z,51.47
2023-05-06T22:23:40.564Z,49.92
2023-05-06T22:26:08.488Z,51.96
2023-05-06T22:28:36.536Z,50.54
2023-05-06T22:31:06.006Z,50.52
2023-05-06T22:33:33.924Z,49.49
2023-05-06T22:36:01.739Z,49.39
2023-05-06T22:38:29.594Z,50.47
2023-05-06T22:40:57.458Z,51.51
2023-05-06T22:43:25.324Z,52.22
2023-05-06T22:45:53.383Z,51.37
2023-05-06T22:48:22.700Z,52.45
2023-05-06T22:50:50.631Z,51.22
2023-05-06T22:53:18.637Z,52.45
2023-05-06T22:55:46.462Z,50.80
2023-05-06T22:58:14.274Z,52.81
2023-05-06T23:00:43.241Z,50.51
2023-05-06T23:03:11.239Z,48.25
2023-05-06T23:05:40.533Z,50.21
2023-05-06T23:08:08.295Z,52.01
2023-05-06T23:10:36.152Z,52.86
2023-05-06T23:13:04.381Z,51.68
2023-05-06T23:15:32.353Z,51.14
2023-05-06T23:18:03.233Z,52.41
2023-05-06T23:20:31.092Z,52.93
2023-05-06T23:23:00.384Z,54.42
2023-05-06T23:25:28.346Z,53.77
2023-05-06T23:27:56.172Z,54.66
2023-05-06T23:30:23.927Z,54.24
2023-05-06T23:32:51.687Z,54.25
2023-05-06T23:35:19.755Z,52.14
2023-05-06T23:37:47.480Z,52.64
2023-05-06T23:40:16.825Z,53.05
2023-05-06T23:42:44.603Z,53.57
2023-05-06T23:45:12.717Z,52.51
2023-05-06T23:47:40.998Z,52.31
2023-05-06T23:50:09.802Z,53.41
2023-05-06T23:52:38.288Z,54.20
2023-05-06T23:55:07.465Z,51.75
2023-05-06T23:57:36.598Z,52.63
